^^
Station Historical Data
Daily Summary for March 8, 2018 Units:  Metric    English   Both
« Previous Day
Next Day »
Daily Weekly Monthly Yearly Custom
  High: Low: Average:
Temperature: -17.8 °C 15.1 °C 20.9 °C
Dew Point: -17.8 °C 10.8 °C 14.2 °C
Humidity: Humidity% 41% 68%
Wind Speed: 0km/h 0km/h 1.9km/h
Wind Gust: 0km/h - -
Wind- - WSW
Pressure: 0 hPa 1005.6 hPa -
Precipitation: 0 mm    
Historical Graphs
 
 
Tabular Data for March 8, 2018
Time Temperature Dew Point Pressure Wind Wind Speed Wind Gust Humidity Rainfall Rate (Hourly) solar Conditions
-17.8 °C -17.8 °C 0 hPa Calm     Humidity% 0 mm SolarRadiationWatts/m^2 W/m2 Conditions
00:04 17.3 °C 15.8 °C 1009 hPa Calm   1.6 km/h 91% 0.25 mm 0.0 W/m2
00:09 17.4 °C 16.1 °C 1009 hPa Calm     92% 0.25 mm 0.0 W/m2
00:14 17.4 °C 16.1 °C 1009 hPa WSW 3.2 km/h 3.2 km/h 92% 0.25 mm 0.0 W/m2
00:19 17.4 °C 16.1 °C 1009 hPa Calm     92% 0.25 mm 0.0 W/m2
00:25 17.4 °C 16.1 °C 1009 hPa Calm   1.6 km/h 92% 0.25 mm 0.0 W/m2
00:30 17.3 °C 15.8 °C 1009 hPa WSW 1.4 km/h 4.8 km/h 91% 0.25 mm 0.0 W/m2
00:35 17.3 °C 15.6 °C 1009 hPa WSW 1.4 km/h 4.8 km/h 90% 0.25 mm 0.0 W/m2
00:40 17.3 °C 15.6 °C 1009 hPa WSW 4.7 km/h 4.8 km/h 90% 0.25 mm 0.0 W/m2
00:45 17.3 °C 15.5 °C 1009 hPa Calm     89% 0.25 mm 0.0 W/m2
00:50 17.3 °C 15.5 °C 1009 hPa Calm     89% 0.25 mm 0.0 W/m2
00:55 17.3 °C 15.5 °C 1009 hPa Calm     89% 0.25 mm 0.0 W/m2
01:00 17.3 °C 15.5 °C 1009 hPa Calm   1.6 km/h 89% 0 mm 0.0 W/m2
01:06 17.3 °C 15.3 °C 1009 hPa Calm   1.6 km/h 88% 0 mm 0.0 W/m2
01:11 17.2 °C 15.2 °C 1009 hPa Calm   1.6 km/h 88% 0 mm 0.0 W/m2
01:17 17.2 °C 15.2 °C 1009 hPa Calm   1.6 km/h 88% 0 mm 0.0 W/m2
01:22 17.2 °C 15.2 °C 1009 hPa WSW 1.4 km/h 3.2 km/h 88% 0 mm 0.0 W/m2
01:27 17.2 °C 15.2 °C 1009 hPa Calm     88% 0 mm 0.0 W/m2
01:32 17.2 °C 15.2 °C 1009 hPa Calm     88% 0 mm 0.0 W/m2
01:37 17.1 °C 15.1 °C 1009 hPa WSW 1.4 km/h 3.2 km/h 88% 0 mm 0.0 W/m2
01:42 17.1 °C 15.1 °C 1008.7 hPa Calm     88% 0 mm 0.0 W/m2
01:47 17.1 °C 15.1 °C 1008.7 hPa Calm     88% 0 mm 0.0 W/m2
01:53 17 °C 15 °C 1008.7 hPa Calm     88% 0 mm 0.0 W/m2
01:58 16.9 °C 15.1 °C 1008.7 hPa Calm     89% 0 mm 0.0 W/m2
02:03 16.9 °C 15.1 °C 1008.7 hPa Calm     89% 0 mm 0.0 W/m2
02:08 16.9 °C 15.1 °C 1008.7 hPa Calm     89% 0 mm 0.0 W/m2
02:13 16.9 °C 15.1 °C 1008.7 hPa Calm     89% 0 mm 0.0 W/m2
02:18 16.8 °C 15.1 °C 1008.7 hPa Calm     90% 0 mm 0.0 W/m2
02:23 16.8 °C 15.1 °C 1008.7 hPa Calm     90% 0 mm 0.0 W/m2
02:28 16.8 °C 15.1 °C 1008.4 hPa Calm     90% 0 mm 0.0 W/m2
02:33 16.8 °C 15.1 °C 1008.4 hPa Calm   1.6 km/h 90% 0 mm 0.0 W/m2
02:39 16.8 °C 15.1 °C 1008.4 hPa Calm     90% 0 mm 0.0 W/m2
02:44 16.7 °C 15.1 °C 1008.4 hPa Calm     90% 0 mm 0.0 W/m2
02:50 16.7 °C 15.1 °C 1008.4 hPa Calm     90% 0 mm 0.0 W/m2
02:55 16.7 °C 15.1 °C 1008.4 hPa Calm     90% 0 mm 0.0 W/m2
03:00 16.7 °C 15.1 °C 1008 hPa Calm     90% 0 mm 0.0 W/m2
03:05 16.6 °C 15.1 °C 1008 hPa Calm     91% 0 mm 0.0 W/m2
03:10 16.6 °C 15.1 °C 1008 hPa Calm     91% 0 mm 0.0 W/m2
03:15 16.6 °C 15.1 °C 1008 hPa Calm     91% 0 mm 0.0 W/m2
03:20 16.5 °C 15 °C 1008 hPa Calm     91% 0 mm 0.0 W/m2
03:26 16.4 °C 14.9 °C 1007.7 hPa Calm     91% 0 mm 0.0 W/m2
03:31 16.3 °C 14.8 °C 1008 hPa Calm     91% 0 mm 0.0 W/m2
03:36 16.3 °C 15 °C 1007.7 hPa Calm     92% 0 mm 0.0 W/m2
03:41 16.2 °C 14.9 °C 1008 hPa Calm     92% 0 mm 0.0 W/m2
03:46 16.2 °C 14.9 °C 1007.7 hPa Calm     92% 0 mm 0.0 W/m2
03:51 16.2 °C 14.9 °C 1007.7 hPa Calm     92% 0 mm 0.0 W/m2
03:56 16.1 °C 14.8 °C 1007.7 hPa Calm     92% 0 mm 0.0 W/m2
04:01 16.1 °C 14.8 °C 1007.7 hPa Calm     92% 0 mm 0.0 W/m2
04:06 16.1 °C 14.8 °C 1007.7 hPa Calm     92% 0 mm 0.0 W/m2
04:12 16 °C 14.7 °C 1008 hPa Calm     92% 0 mm 0.0 W/m2
04:17 15.9 °C 14.6 °C 1008 hPa Calm     92% 0 mm 0.0 W/m2
04:22 15.9 °C 14.6 °C 1008 hPa Calm     92% 0 mm 0.0 W/m2
04:27 15.8 °C 14.5 °C 1007.7 hPa Calm     92% 0 mm 0.0 W/m2
04:32 15.7 °C 14.4 °C 1007.7 hPa Calm     92% 0 mm 0.0 W/m2
04:37 15.7 °C 14.4 °C 1007.7 hPa Calm   1.6 km/h 92% 0 mm 0.0 W/m2
04:42 15.6 °C 14.5 °C 1007.7 hPa Calm   1.6 km/h 93% 0 mm 0.0 W/m2
04:47 15.6 °C 14.3 °C 1007.7 hPa Calm     92% 0 mm 0.0 W/m2
04:52 15.5 °C 14.2 °C 1007.7 hPa Calm     92% 0 mm 0.0 W/m2
04:58 15.4 °C 14.1 °C 1007.7 hPa Calm     92% 0 mm 0.0 W/m2
05:03 15.4 °C 14.1 °C 1007.7 hPa Calm     92% 0 mm 0.0 W/m2
05:08 15.4 °C 14.3 °C 1007.7 hPa Calm     93% 0 mm 0.0 W/m2
05:13 15.3 °C 14.2 °C 1007.7 hPa Calm     93% 0 mm 0.0 W/m2
05:19 15.3 °C 14.2 °C 1007.7 hPa Calm     93% 0 mm 0.0 W/m2
05:24 15.3 °C 14.2 °C 1007.7 hPa Calm     93% 0 mm 0.0 W/m2
05:29 15.2 °C 14.1 °C 1008 hPa Calm     93% 0 mm 0.0 W/m2
05:34 15.2 °C 14.1 °C 1008 hPa Calm     93% 0 mm 0.0 W/m2
05:39 15.2 °C 14.1 °C 1008 hPa Calm     93% 0 mm 0.0 W/m2
05:45 15.2 °C 14.1 °C 1008 hPa Calm     93% 0 mm 0.0 W/m2
05:50 15.1 °C 14 °C 1008.4 hPa Calm     93% 0 mm 0.0 W/m2
05:55 15.1 °C 14 °C 1008.4 hPa Calm     93% 0 mm 0.0 W/m2
06:00 15.1 °C 14.1 °C 1008.4 hPa Calm     94% 0 mm 0.0 W/m2
06:05 15.2 °C 14.2 °C 1008.4 hPa Calm     94% 0 mm 0.0 W/m2
06:10 15.2 °C 14.2 °C 1008.4 hPa Calm     94% 0 mm 0.0 W/m2
06:15 15.2 °C 14.2 °C 1008.4 hPa Calm     94% 0 mm 0.0 W/m2
06:20 15.2 °C 14.2 °C 1008.4 hPa Calm     94% 0 mm 0.0 W/m2
06:25 15.3 °C 14.3 °C 1008.7 hPa Calm     94% 0 mm 0.0 W/m2
06:31 15.3 °C 14.3 °C 1008.7 hPa Calm     94% 0 mm 0.0 W/m2
06:36 15.3 °C 14.3 °C 1008.7 hPa Calm     94% 0 mm 0.0 W/m2
06:41 15.3 °C 14.2 °C 1008.7 hPa Calm     93% 0 mm 0.0 W/m2
06:46 15.3 °C 14.2 °C 1008.4 hPa Calm   3.2 km/h 93% 0 mm 0.0 W/m2
06:51 15.3 °C 14.2 °C 1008.4 hPa Calm     93% 0 mm 0.0 W/m2
06:56 15.3 °C 14.2 °C 1008.4 hPa Calm   1.6 km/h 93% 0 mm 0.0 W/m2
07:01 15.3 °C 14.2 °C 1008.4 hPa Calm     93% 0 mm 5.0 W/m2
07:06 15.3 °C 14.2 °C 1008.7 hPa Calm     93% 0 mm 9.0 W/m2
07:12 15.2 °C 14.1 °C 1008.7 hPa Calm     93% 0 mm 11.0 W/m2
07:17 15.2 °C 14.1 °C 1008.7 hPa Calm     93% 0 mm 14.0 W/m2
07:22 15.2 °C 14.1 °C 1008.7 hPa Calm     93% 0 mm 16.0 W/m2
07:27 15.3 °C 14.2 °C 1008.7 hPa Calm     93% 0 mm 25.0 W/m2
07:32 15.3 °C 14.3 °C 1009 hPa Calm     94% 0 mm 42.0 W/m2
07:37 15.4 °C 14.4 °C 1009 hPa Calm     94% 0 mm 51.0 W/m2
07:42 15.4 °C 14.4 °C 1009 hPa Calm     94% 0 mm 67.0 W/m2
07:47 15.6 °C 14.6 °C 1009 hPa Calm     94% 0 mm 63.0 W/m2
07:52 15.6 °C 14.6 °C 1009 hPa Calm     94% 0 mm 42.0 W/m2
07:58 15.7 °C 14.6 °C 1009 hPa Calm     93% 0 mm 26.0 W/m2
08:03 15.7 °C 14.6 °C 1009 hPa Calm     93% 0 mm 33.0 W/m2
08:09 15.8 °C 14.7 °C 1009 hPa Calm     93% 0 mm 25.0 W/m2
08:14 15.9 °C 14.6 °C 1009 hPa Calm     92% 0 mm 25.0 W/m2
08:19 15.9 °C 14.6 °C 1009 hPa Calm     92% 0 mm 26.0 W/m2
08:24 16.1 °C 14.8 °C 1009 hPa Calm   3.2 km/h 92% 0 mm 28.0 W/m2
08:29 16.2 °C 14.7 °C 1009 hPa Calm   1.6 km/h 91% 0 mm 28.0 W/m2
08:34 16.3 °C 14.7 °C 1009 hPa Calm   3.2 km/h 90% 0 mm 37.0 W/m2
08:39 16.4 °C 14.6 °C 1009 hPa Calm     89% 0 mm 35.0 W/m2
08:45 16.6 °C 14.6 °C 1009.4 hPa Calm   3.2 km/h 88% 0 mm 42.0 W/m2
08:50 16.7 °C 14.7 °C 1009.4 hPa Calm     88% 0 mm 60.0 W/m2
08:55 16.8 °C 14.4 °C 1009.4 hPa Calm   3.2 km/h 86% 0 mm 65.0 W/m2
09:00 17.1 °C 14.6 °C 1009.4 hPa WSW 1.4 km/h 1.6 km/h 85% 0 mm 90.0 W/m2
09:05 17.2 °C 14.5 °C 1009.4 hPa Calm   4.8 km/h 84% 0 mm 160.0 W/m2
09:10 17.6 °C 14.7 °C 1009.4 hPa Calm   1.6 km/h 83% 0 mm 163.0 W/m2
09:15 17.8 °C 14.9 °C 1009.7 hPa Calm   6.4 km/h 83% 0 mm 142.0 W/m2
09:20 18.2 °C 15.1 °C 1009.7 hPa WNW 3.2 km/h 4.8 km/h 82% 0 mm 207.0 W/m2
09:25 18.3 °C 15 °C 1009.7 hPa Calm   1.6 km/h 81% 0 mm 218.0 W/m2
09:31 18.4 °C 15.1 °C 1009.4 hPa Calm   4.8 km/h 81% 0 mm 265.0 W/m2
09:36 18.6 °C 15.3 °C 1009.4 hPa Calm   1.6 km/h 81% 0 mm 696.0 W/m2
09:41 18.9 °C 15.4 °C 1009.4 hPa Calm   4.8 km/h 80% 0 mm 810.0 W/m2
09:46 19.3 °C 15.4 °C 1009.7 hPa SW 4.7 km/h 9.7 km/h 78% 0 mm 810.0 W/m2
09:51 19.4 °C 15.3 °C 1009.7 hPa Calm   4.8 km/h 77% 0 mm 221.0 W/m2
09:56 19.5 °C 15.4 °C 1009.7 hPa Calm   3.2 km/h 77% 0 mm 306.0 W/m2
10:01 19.7 °C 15.3 °C 1009.7 hPa Calm   4.8 km/h 76% 0 mm 701.0 W/m2
10:06 20.1 °C 15.5 °C 1009.7 hPa WNW 1.4 km/h 4.8 km/h 75% 0 mm 675.0 W/m2
10:11 20.4 °C 15.6 °C 1009.7 hPa SW 6.4 km/h 6.4 km/h 74% 0 mm 457.0 W/m2
10:16 20.6 °C 15.4 °C 1009.4 hPa Calm   3.2 km/h 72% 0 mm 884.0 W/m2
10:21 20.8 °C 15.8 °C 1009.4 hPa NNW 1.4 km/h 3.2 km/h 73% 0 mm 288.0 W/m2
10:27 21.1 °C 15.6 °C 1009.4 hPa Calm   4.8 km/h 71% 0 mm 826.0 W/m2
10:32 21.4 °C 15.7 °C 1009.4 hPa Calm   3.2 km/h 70% 0 mm 867.0 W/m2
10:37 21.7 °C 15.5 °C 1009.4 hPa Calm   1.6 km/h 68% 0 mm 870.0 W/m2
10:42 22.1 °C 16.1 °C 1009.4 hPa Calm   8 km/h 69% 0 mm 925.0 W/m2
10:47 22.3 °C 15.9 °C 1009.4 hPa West 6.4 km/h 6.4 km/h 67% 0 mm 1018.0 W/m2
10:52 22.3 °C 15.9 °C 1009.4 hPa West 1.4 km/h 3.2 km/h 67% 0 mm 958.0 W/m2
10:57 22.6 °C 15.9 °C 1009.4 hPa WSW 1.4 km/h 4.8 km/h 66% 0 mm 962.0 W/m2
11:02 22.8 °C 15.9 °C 1009.4 hPa Calm   4.8 km/h 65% 0 mm 1093.0 W/m2
11:08 22.9 °C 16 °C 1009.4 hPa West 1.4 km/h 4.8 km/h 65% 0 mm 1093.0 W/m2
11:13 23.1 °C 15.9 °C 1009.4 hPa NE 1.4 km/h 4.8 km/h 64% 0 mm 1100.0 W/m2
11:18 23.4 °C 16 °C 1009.4 hPa Calm   1.6 km/h 63% 0 mm 329.0 W/m2
11:23 23.6 °C 16.4 °C 1009.4 hPa Calm   1.6 km/h 64% 0 mm 1072.0 W/m2
11:28 23.6 °C 15.9 °C 1009.4 hPa Calm   1.6 km/h 62% 0 mm 230.0 W/m2
11:33 23.7 °C 16 °C 1009 hPa Calm   4.8 km/h 62% 0 mm 253.0 W/m2
11:38 23.7 °C 16 °C 1009 hPa WSW 4.7 km/h 6.4 km/h 62% 0 mm 1027.0 W/m2
11:43 23.8 °C 15.8 °C 1009 hPa Calm   4.8 km/h 61% 0 mm 111.0 W/m2
11:48 23.7 °C 15.5 °C 1009 hPa Calm   1.6 km/h 60% 0 mm 1072.0 W/m2
11:53 23.9 °C 15.4 °C 1009 hPa West 1.4 km/h 1.6 km/h 59% 0 mm 1090.0 W/m2
11:59 24 °C 15.5 °C 1008.7 hPa Calm   3.2 km/h 59% 0 mm 1083.0 W/m2
12:04 24.3 °C 16 °C 1008.7 hPa NNW 7.9 km/h 9.7 km/h 60% 0 mm 564.0 W/m2
12:09 24.6 °C 15.8 °C 1008.7 hPa NW 1.4 km/h 8 km/h 58% 0 mm 1053.0 W/m2
12:14 24.8 °C 15.7 °C 1008.7 hPa Calm   4.8 km/h 57% 0 mm 1042.0 W/m2
12:20 25.3 °C 15.9 °C 1008.7 hPa North 1.4 km/h 11.3 km/h 56% 0 mm 1056.0 W/m2
12:25 25.8 °C 15.8 °C 1008.4 hPa North 6.4 km/h 9.7 km/h 54% 0 mm 1086.0 W/m2
12:30 26.1 °C 15.8 °C 1008.4 hPa Calm   4.8 km/h 53% 0 mm 1081.0 W/m2
12:35 26.3 °C 15.7 °C 1008.4 hPa SSW 1.4 km/h 3.2 km/h 52% 0 mm 1097.0 W/m2
12:41 26.4 °C 15.4 °C 1008.4 hPa NW 1.4 km/h 4.8 km/h 51% 0 mm 1157.0 W/m2
12:46 26.6 °C 15.6 °C 1008.4 hPa West 4.7 km/h 11.3 km/h 51% 0 mm 1278.0 W/m2
12:51 26.4 °C 15.8 °C 1008.4 hPa SW 4.7 km/h 9.7 km/h 52% 0 mm 1241.0 W/m2
12:56 26.1 °C 15.5 °C 1008.4 hPa NNW 7.9 km/h 8 km/h 52% 0 mm 295.0 W/m2
13:01 26.3 °C 15.7 °C 1008.4 hPa North 6.4 km/h 9.7 km/h 52% 0 mm 1148.0 W/m2
13:06 26.6 °C 15.6 °C 1008 hPa West 3.2 km/h 9.7 km/h 51% 0 mm 1134.0 W/m2
13:11 26.4 °C 15.8 °C 1008 hPa Calm   3.2 km/h 52% 0 mm 204.0 W/m2
13:16 26.2 °C 15.9 °C 1008 hPa ENE 6.4 km/h 6.4 km/h 53% 0 mm 202.0 W/m2
13:21 26.2 °C 15.6 °C 1008 hPa Calm   9.7 km/h 52% 0 mm 1076.0 W/m2
13:26 26.2 °C 15.9 °C 1007.7 hPa SW 6.4 km/h 12.9 km/h 53% 0 mm 1116.0 W/m2
13:32 26.3 °C 16 °C 1007.7 hPa Calm   3.2 km/h 53% 0 mm 1116.0 W/m2
13:37 26.7 °C 15.7 °C 1007.7 hPa NW 1.4 km/h 9.7 km/h 51% 0 mm 1063.0 W/m2
13:43 27.1 °C 16.1 °C 1007.7 hPa North 6.4 km/h 8 km/h 51% 0 mm 1046.0 W/m2
13:48 27.4 °C 16.1 °C 1007.3 hPa NE 4.7 km/h 9.7 km/h 50% 0 mm 1041.0 W/m2
13:53 27.5 °C 16.1 °C 1007.3 hPa NNW 4.7 km/h 6.4 km/h 50% 0 mm 1034.0 W/m2
13:58 27.6 °C 15.9 °C 1007.3 hPa SSW 3.2 km/h 12.9 km/h 49% 0 mm 1049.0 W/m2
14:03 27.4 °C 15.7 °C 1007.3 hPa SW 4.7 km/h 8 km/h 49% 0 mm 199.0 W/m2
14:08 27.4 °C 15.4 °C 1007 hPa Calm   9.7 km/h 48% 0 mm 1037.0 W/m2
14:13 27.6 °C 15.9 °C 1007 hPa NNE 4.7 km/h 6.4 km/h 49% 0 mm 1023.0 W/m2
14:18 27.9 °C 15.9 °C 1007 hPa Calm   8 km/h 48% 0 mm 1007.0 W/m2
14:23 28.1 °C 15.7 °C 1006.7 hPa North 1.4 km/h 16.1 km/h 47% 0 mm 1016.0 W/m2
14:29 28.2 °C 15.5 °C 1006.7 hPa North 4.7 km/h 12.9 km/h 46% 0 mm 425.0 W/m2
14:34 28.2 °C 15.8 °C 1006.7 hPa WSW 3.2 km/h 12.9 km/h 47% 0 mm 930.0 W/m2
14:39 28 °C 15.3 °C 1006.3 hPa NE 4.7 km/h 11.3 km/h 46% 0 mm 949.0 W/m2
14:44 27.9 °C 15.2 °C 1006.3 hPa WSW 3.2 km/h 3.2 km/h 46% 0 mm 181.0 W/m2
14:49 28 °C 14.6 °C 1006.3 hPa South 3.2 km/h 3.2 km/h 44% 0 mm 877.0 W/m2
14:54 27.8 °C 14.8 °C 1006.3 hPa WNW 3.2 km/h 6.4 km/h 45% 0 mm 155.0 W/m2
14:59 27.4 °C 15.1 °C 1006.3 hPa Calm   1.6 km/h 47% 0 mm 125.0 W/m2
15:04 27.4 °C 14.8 °C 1006.3 hPa Calm   16.1 km/h 46% 0 mm 912.0 W/m2
15:10 27.6 °C 15.3 °C 1006.3 hPa SW 6.4 km/h 11.3 km/h 47% 0 mm 889.0 W/m2
15:15 27.6 °C 14.9 °C 1006.3 hPa Calm   6.4 km/h 46% 0 mm 153.0 W/m2
15:20 27.4 °C 14.8 °C 1006 hPa West 4.7 km/h 14.5 km/h 46% 0 mm 904.0 W/m2
15:25 27.6 °C 15.3 °C 1006 hPa WNW 7.9 km/h 8 km/h 47% 0 mm 891.0 W/m2
15:30 27.8 °C 15.1 °C 1006 hPa WSW 1.4 km/h 6.4 km/h 46% 0 mm 860.0 W/m2
15:35 27.8 °C 14.4 °C 1006 hPa SSW 6.4 km/h 16.1 km/h 44% 0 mm 817.0 W/m2
15:40 27.7 °C 15 °C 1006 hPa SW 3.2 km/h 6.4 km/h 46% 0 mm 123.0 W/m2
15:45 27.3 °C 14.3 °C 1005.6 hPa West 14.3 km/h 16.1 km/h 45% 0 mm 160.0 W/m2
15:50 27.3 °C 14.3 °C 1005.6 hPa West 4.7 km/h 16.1 km/h 45% 0 mm 775.0 W/m2
15:55 27.4 °C 14.4 °C 1005.6 hPa SSW 6.4 km/h 14.5 km/h 45% 0 mm 759.0 W/m2
16:01 27.7 °C 14.7 °C 1005.6 hPa Calm   11.3 km/h 45% 0 mm 759.0 W/m2
16:06 28 °C 15 °C 1005.6 hPa WSW 6.4 km/h 11.3 km/h 45% 0 mm 761.0 W/m2
16:11 28.1 °C 14.7 °C 1005.6 hPa WNW 1.4 km/h 14.5 km/h 44% 0 mm 715.0 W/m2
16:16 28.1 °C 15 °C 1005.6 hPa West 9.7 km/h 14.5 km/h 45% 0 mm 661.0 W/m2
16:21 28.1 °C 15 °C 1005.6 hPa SSW 7.9 km/h 14.5 km/h 45% 0 mm 657.0 W/m2
16:26 27.9 °C 14.9 °C 1005.6 hPa WSW 7.9 km/h 11.3 km/h 45% 0 mm 656.0 W/m2
16:31 27.7 °C 14.7 °C 1005.6 hPa SW 7.9 km/h 20.9 km/h 45% 0 mm 638.0 W/m2
16:36 27.8 °C 14.8 °C 1005.6 hPa WNW 7.9 km/h 14.5 km/h 45% 0 mm 612.0 W/m2
16:41 27.8 °C 14.4 °C 1005.6 hPa SSW 14.3 km/h 19.3 km/h 44% 0 mm 568.0 W/m2
16:47 27.7 °C 14.3 °C 1005.6 hPa WSW 11.1 km/h 14.5 km/h 44% 0 mm 538.0 W/m2
16:52 27.6 °C 14.2 °C 1005.6 hPa WNW 11.1 km/h 16.1 km/h 44% 0 mm 520.0 W/m2
16:57 27.6 °C 14.2 °C 1005.6 hPa WSW 6.4 km/h 16.1 km/h 44% 0 mm 497.0 W/m2
17:02 27.5 °C 13.8 °C 1005.6 hPa SW 14.3 km/h 17.7 km/h 43% 0 mm 476.0 W/m2
17:07 27.3 °C 14 °C 1005.6 hPa WSW 7.9 km/h 16.1 km/h 44% 0 mm 455.0 W/m2
17:12 27.3 °C 14 °C 1005.6 hPa South 9.7 km/h 11.3 km/h 44% 0 mm 436.0 W/m2
17:17 27.2 °C 13.5 °C 1005.6 hPa West 13 km/h 16.1 km/h 43% 0 mm 415.0 W/m2
17:22 27.3 °C 13.6 °C 1005.6 hPa SW 13 km/h 14.5 km/h 43% 0 mm 394.0 W/m2
17:27 27.3 °C 13.6 °C 1005.6 hPa West 7.9 km/h 8 km/h 43% 0 mm 376.0 W/m2
17:33 27.2 °C 13.2 °C 1005.6 hPa SW 7.9 km/h 16.1 km/h 42% 0 mm 357.0 W/m2
17:38 27.2 °C 13.2 °C 1005.6 hPa West 13 km/h 14.5 km/h 42% 0 mm 338.0 W/m2
17:43 27.2 °C 12.8 °C 1005.6 hPa West 3.2 km/h 16.1 km/h 41% 0 mm 315.0 W/m2
17:48 27.2 °C 13.5 °C 1005.6 hPa West 9.7 km/h 16.1 km/h 43% 0 mm 294.0 W/m2
17:53 27 °C 13.4 °C 1005.6 hPa WSW 6.4 km/h 14.5 km/h 43% 0 mm 274.0 W/m2
17:58 26.9 °C 13.6 °C 1005.6 hPa WSW 7.9 km/h 16.1 km/h 44% 0 mm 253.0 W/m2
18:03 26.9 °C 13.6 °C 1005.6 hPa SSW 7.9 km/h 16.1 km/h 44% 0 mm 234.0 W/m2
18:08 26.8 °C 12.8 °C 1005.6 hPa WSW 6.4 km/h 14.5 km/h 42% 0 mm 213.0 W/m2
18:13 26.7 °C 13.4 °C 1005.6 hPa SSE 9.7 km/h 14.5 km/h 44% 0 mm 193.0 W/m2
18:19 26.6 °C 13.7 °C 1005.6 hPa WSW 7.9 km/h 12.9 km/h 45% 0 mm 171.0 W/m2
18:25 26.5 °C 13.6 °C 1005.6 hPa West 9.7 km/h 11.3 km/h 45% 0 mm 141.0 W/m2
18:30 26.3 °C 13.8 °C 1005.6 hPa WSW 6.4 km/h 9.7 km/h 46% 0 mm 114.0 W/m2
18:35 26.2 °C 13.7 °C 1005.6 hPa WSW 3.2 km/h 11.3 km/h 46% 0 mm 91.0 W/m2
18:40 26.2 °C 13.7 °C 1005.6 hPa Calm   11.3 km/h 46% 0 mm 63.0 W/m2
18:45 26.1 °C 13.9 °C 1006 hPa Calm   12.9 km/h 47% 0 mm 25.0 W/m2
18:50 25.8 °C 14 °C 1006 hPa WSW 3.2 km/h 6.4 km/h 48% 0 mm 19.0 W/m2
18:55 25.5 °C 13.7 °C 1006 hPa WSW 3.2 km/h 12.9 km/h 48% 0 mm 14.0 W/m2
19:00 25.2 °C 13.7 °C 1006 hPa WSW 7.9 km/h 8 km/h 49% 0 mm 11.0 W/m2
19:06 24.9 °C 13.5 °C 1006 hPa SSW 3.2 km/h 9.7 km/h 49% 0 mm 7.0 W/m2
19:11 24.6 °C 13.2 °C 1006 hPa West 4.7 km/h 11.3 km/h 49% 0 mm 5.0 W/m2
19:16 24.4 °C 13.3 °C 1006.3 hPa WSW 1.4 km/h 11.3 km/h 50% 0 mm 0.0 W/m2
19:21 24.2 °C 13.1 °C 1006.3 hPa West 3.2 km/h 11.3 km/h 50% 0 mm 0.0 W/m2
19:26 24.1 °C 13 °C 1006.3 hPa WSW 1.4 km/h 11.3 km/h 50% 0 mm 0.0 W/m2
19:31 23.9 °C 12.8 °C 1006.3 hPa WSW 1.4 km/h 4.8 km/h 50% 0 mm 0.0 W/m2
19:36 23.8 °C 13.1 °C 1006.3 hPa West 3.2 km/h 6.4 km/h 51% 0 mm 0.0 W/m2
19:41 23.7 °C 13 °C 1006.3 hPa SW 1.4 km/h 1.6 km/h 51% 0 mm 0.0 W/m2
19:46 23.6 °C 12.9 °C 1006.3 hPa West 1.4 km/h 4.8 km/h 51% 0 mm 0.0 W/m2
19:52 23.4 °C 12.7 °C 1006.7 hPa Calm   4.8 km/h 51% 0 mm 0.0 W/m2
19:57 23.3 °C 12.9 °C 1006.7 hPa WSW 1.4 km/h 1.6 km/h 52% 0 mm 0.0 W/m2
20:02 23.2 °C 12.8 °C 1006.7 hPa West 1.4 km/h 4.8 km/h 52% 0 mm 0.0 W/m2
20:07 23.1 °C 12.4 °C 1006.7 hPa Calm   3.2 km/h 51% 0 mm 0.0 W/m2
20:12 23.1 °C 12.7 °C 1006.7 hPa Calm     52% 0 mm 0.0 W/m2
20:17 22.9 °C 12.8 °C 1006.7 hPa Calm   1.6 km/h 53% 0 mm 0.0 W/m2
20:22 22.8 °C 12.4 °C 1006.7 hPa Calm   1.6 km/h 52% 0 mm 0.0 W/m2
20:27 22.7 °C 12.6 °C 1006.7 hPa Calm     53% 0 mm 0.0 W/m2
20:33 22.6 °C 12.5 °C 1006.7 hPa Calm     53% 0 mm 0.0 W/m2
20:38 22.5 °C 12.4 °C 1006.7 hPa Calm     53% 0 mm 0.0 W/m2
20:43 22.4 °C 12.6 °C 1007 hPa Calm     54% 0 mm 0.0 W/m2
20:48 22.2 °C 12.2 °C 1007 hPa Calm     53% 0 mm 0.0 W/m2
20:53 22.1 °C 12.1 °C 1007 hPa Calm   1.6 km/h 53% 0 mm 0.0 W/m2
20:58 21.9 °C 11.3 °C 1007 hPa Calm   3.2 km/h 51% 0 mm 0.0 W/m2
21:03 21.8 °C 11.5 °C 1007 hPa Calm   1.6 km/h 52% 0 mm 0.0 W/m2
21:08 21.8 °C 11.2 °C 1007 hPa Calm   3.2 km/h 51% 0 mm 0.0 W/m2
21:14 21.7 °C 11.1 °C 1007 hPa WSW 1.4 km/h 6.4 km/h 51% 0 mm 0.0 W/m2
21:20 21.7 °C 11.1 °C 1007 hPa WSW 6.4 km/h 9.7 km/h 51% 0 mm 0.0 W/m2
21:25 21.7 °C 10.8 °C 1007 hPa WSW 4.7 km/h 4.8 km/h 50% 0 mm 0.0 W/m2
21:30 21.7 °C 11.1 °C 1007.3 hPa West 3.2 km/h 4.8 km/h 51% 0 mm 0.0 W/m2
21:35 21.7 °C 11.1 °C 1007.3 hPa WNW 7.9 km/h 9.7 km/h 51% 0 mm 0.0 W/m2
21:40 21.6 °C 11.3 °C 1007.3 hPa West 4.7 km/h 9.7 km/h 52% 0 mm 0.0 W/m2
21:45 21.4 °C 11.4 °C 1007.3 hPa WNW 3.2 km/h 8 km/h 53% 0 mm 0.0 W/m2
21:50 21.3 °C 11.6 °C 1007.3 hPa NW 1.4 km/h 3.2 km/h 54% 0 mm 0.0 W/m2
21:55 21.2 °C 11.5 °C 1007 hPa West 1.4 km/h 6.4 km/h 54% 0 mm 0.0 W/m2
22:01 21.1 °C 11.7 °C 1007 hPa Calm   3.2 km/h 55% 0 mm 0.0 W/m2
22:06 20.9 °C 11.5 °C 1007.3 hPa Calm     55% 0 mm 0.0 W/m2
22:11 20.8 °C 11.7 °C 1007.3 hPa WNW 1.4 km/h 3.2 km/h 56% 0 mm 0.0 W/m2
22:17 20.7 °C 11.9 °C 1007.3 hPa West 1.4 km/h 1.6 km/h 57% 0 mm 0.0 W/m2
22:22 20.6 °C 12 °C 1007.3 hPa Calm     58% 0 mm 0.0 W/m2
22:27 20.4 °C 11.9 °C 1007.3 hPa WNW 1.4 km/h 8 km/h 58% 0 mm 0.0 W/m2
22:33 20.2 °C 11.7 °C 1007.3 hPa Calm   6.4 km/h 58% 0 mm 0.0 W/m2
22:38 20.2 °C 12.2 °C 1007.3 hPa Calm   8 km/h 60% 0 mm 0.0 W/m2
22:43 20.1 °C 11.8 °C 1007.3 hPa WSW 1.4 km/h 3.2 km/h 59% 0 mm 0.0 W/m2
22:49 19.9 °C 11.9 °C 1007.3 hPa Calm   1.6 km/h 60% 0 mm 0.0 W/m2
22:54 19.9 °C 11.9 °C 1007.3 hPa West 1.4 km/h 1.6 km/h 60% 0 mm 0.0 W/m2
22:59 19.8 °C 11.8 °C 1007.3 hPa Calm   4.8 km/h 60% 0 mm 0.0 W/m2
23:04 19.7 °C 12 °C 1007.3 hPa Calm   3.2 km/h 61% 0 mm 0.0 W/m2
23:09 19.6 °C 11.9 °C 1007.3 hPa Calm   1.6 km/h 61% 0 mm 0.0 W/m2
23:14 19.6 °C 12.1 °C 1007.3 hPa Calm     62% 0 mm 0.0 W/m2
23:19 19.5 °C 12.3 °C 1007.3 hPa Calm     63% 0 mm 0.0 W/m2
23:24 19.4 °C 12.2 °C 1007.3 hPa Calm     63% 0 mm 0.0 W/m2
23:29 19.3 °C 12.8 °C 1007.3 hPa Calm     66% 0 mm 0.0 W/m2
23:35 19.2 °C 12.7 °C 1007.3 hPa Calm     66% 0 mm 0.0 W/m2
23:40 19 °C 13 °C 1007.3 hPa Calm     68% 0 mm 0.0 W/m2
23:45 18.8 °C 13.2 °C 1007.3 hPa Calm     70% 0 mm 0.0 W/m2
23:50 18.7 °C 13.3 °C 1007.3 hPa Calm     71% 0 mm 0.0 W/m2
23:55 18.6 °C 13 °C 1007.3 hPa Calm     70% 0 mm 0.0 W/m2
Olympia, Windhoek, Namibia
Compliments of Weather Underground - 3.25 mb